Time;durP1;ratioP1;P1;durP2;ratioP2;P2;SDS_P1;SDS_P2;PMS_P1;PMS_P2;Temp;Humidity;BMP_temperature;BMP_pressure;BME280_temperature;BME280_humidity;BME280_pressure;Samples;Min_cycle;Max_cycle;Signal;HPM_P1;HPM_P2
2022/11/27 00:02:29;;;;;;;100.77;41.53;;;;;;;0.68;96.88;100173.73;2280718;78;20906;-83
2022/11/27 00:05:30;;;;;;;87.80;38.37;;;;;;;0.70;96.89;100184.12;2280396;78;20945;-83
2022/11/27 00:08:30;;;;;;;85.47;39.73;;;;;;;0.71;96.93;100182.05;2280217;78;20946;-83
2022/11/27 00:11:31;;;;;;;82.50;37.50;;;;;;;0.69;96.67;100185.80;2280253;78;20903;-84
2022/11/27 00:14:31;;;;;;;91.70;41.63;;;;;;;0.66;96.82;100184.29;2280183;78;21301;-83
2022/11/27 00:17:31;;;;;;;92.13;40.73;;;;;;;0.66;96.83;100181.72;2280181;78;21005;-83
2022/11/27 00:20:32;;;;;;;87.93;39.90;;;;;;;0.65;96.78;100185.07;2280350;78;20918;-83
2022/11/27 00:23:32;;;;;;;92.53;41.60;;;;;;;0.64;96.92;100179.04;2280560;78;20915;-83
2022/11/27 00:26:35;;;;;;;88.60;39.97;;;;;;;0.65;96.86;100176.08;2280613;78;20926;-83
2022/11/27 00:29:36;;;;;;;89.00;40.43;;;;;;;0.67;96.96;100174.52;2280561;78;20903;-83
2022/11/27 00:32:36;;;;;;;84.93;39.73;;;;;;;0.69;97.00;100172.95;2280786;78;20899;-83
2022/11/27 00:35:37;;;;;;;73.40;35.37;;;;;;;0.77;97.22;100173.49;2280687;78;20927;-83
2022/11/27 00:38:37;;;;;;;83.73;38.67;;;;;;;0.83;96.90;100176.50;2280560;78;20962;-83
2022/11/27 00:41:37;;;;;;;78.93;36.53;;;;;;;0.83;96.43;100175.21;2280659;78;20887;-83
2022/11/27 00:44:38;;;;;;;77.40;36.67;;;;;;;0.87;96.43;100179.82;2280409;78;20919;-83
2022/11/27 00:47:38;;;;;;;77.07;36.83;;;;;;;0.91;96.49;100186.97;2280651;78;20887;-83
2022/11/27 00:50:39;;;;;;;75.43;36.37;;;;;;;0.93;96.14;100188.86;2280386;78;20898;-82
2022/11/27 00:53:39;;;;;;;77.13;37.87;;;;;;;0.92;96.05;100192.61;2280554;78;20939;-83
2022/11/27 00:56:40;;;;;;;77.07;36.27;;;;;;;0.95;96.09;100187.69;2280589;78;20954;-83
2022/11/27 00:59:40;;;;;;;78.00;37.37;;;;;;;0.99;95.92;100186.22;2280393;78;20942;-83
2022/11/27 01:02:40;;;;;;;73.63;38.37;;;;;;;1.00;95.78;100189.30;2280403;78;20929;-82
2022/11/27 01:05:41;;;;;;;84.23;38.60;;;;;;;1.02;95.66;100187.72;2280043;78;20957;-82
2022/11/27 01:08:41;;;;;;;88.23;38.10;;;;;;;1.04;95.63;100189.62;2280204;78;20966;-82
2022/11/27 01:11:42;;;;;;;90.30;38.23;;;;;;;1.07;95.77;100182.52;2280190;78;21322;-82
2022/11/27 01:14:42;;;;;;;86.87;39.40;;;;;;;1.11;95.59;100194.41;2280110;78;20922;-82
2022/11/27 01:17:42;;;;;;;88.30;39.70;;;;;;;1.10;95.26;100182.34;2279687;78;20974;-82
2022/11/27 01:20:43;;;;;;;92.23;42.70;;;;;;;1.11;95.36;100185.41;2279178;78;20945;-82
2022/11/27 01:23:43;;;;;;;90.90;40.70;;;;;;;1.12;95.16;100185.02;2279150;78;20911;-82
2022/11/27 01:26:44;;;;;;;89.60;40.47;;;;;;;1.12;95.30;100180.77;2278784;78;20934;-82
2022/11/27 01:29:44;;;;;;;88.87;40.50;;;;;;;1.15;95.23;100184.83;2279334;78;20899;-82
2022/11/27 01:32:44;;;;;;;85.23;39.03;;;;;;;1.15;95.24;100174.55;2279969;78;21251;-82
2022/11/27 01:35:45;;;;;;;95.03;40.43;;;;;;;1.22;95.41;100174.58;2280028;78;20914;-82
2022/11/27 01:38:45;;;;;;;83.73;39.23;;;;;;;1.25;94.96;100177.36;2280187;78;21022;-82
2022/11/27 01:41:46;;;;;;;80.47;37.57;;;;;;;1.27;95.05;100172.83;2280280;78;21264;-82
2022/11/27 01:44:46;;;;;;;84.40;40.27;;;;;;;1.32;95.06;100169.28;2280044;78;21255;-82
2022/11/27 01:47:46;;;;;;;86.83;40.13;;;;;;;1.32;94.70;100174.83;2280032;78;20903;-82
2022/11/27 01:50:47;;;;;;;94.00;43.23;;;;;;;1.36;94.64;100176.43;2280188;78;20903;-82
2022/11/27 01:53:47;;;;;;;92.57;41.50;;;;;;;1.36;94.64;100176.43;2280047;78;21303;-82
2022/11/27 01:56:48;;;;;;;93.20;42.27;;;;;;;1.40;94.49;100178.82;2280020;78;20883;-82
2022/11/27 01:59:48;;;;;;;95.93;42.33;;;;;;;1.35;94.29;100176.33;2280191;78;20947;-82
2022/11/27 02:02:48;;;;;;;85.83;40.73;;;;;;;1.36;94.35;100174.25;2280380;78;21270;-82
2022/11/27 02:05:51;;;;;;;91.10;43.37;;;;;;;1.33;94.20;100174.93;2257990;78;20879;-81
2022/11/27 02:08:51;;;;;;;89.70;42.53;;;;;;;1.33;94.24;100179.18;2280360;78;21306;-82
2022/11/27 02:11:52;;;;;;;99.43;46.17;;;;;;;1.33;94.15;100179.18;2280354;78;20903;-82
2022/11/27 02:14:52;;;;;;;88.00;41.30;;;;;;;1.33;94.30;100183.04;2280550;78;20875;-82
2022/11/27 02:17:52;;;;;;;85.33;40.23;;;;;;;1.30;93.92;100180.26;2280421;78;20911;-82
2022/11/27 02:20:53;;;;;;;91.57;42.00;;;;;;;1.26;94.08;100186.87;2280414;78;20931;-82
2022/11/27 02:23:53;;;;;;;88.03;41.43;;;;;;;1.23;94.21;100189.23;2280310;78;20914;-81
2022/11/27 02:26:54;;;;;;;92.10;43.40;;;;;;;1.20;93.99;100191.19;2280220;78;20903;-82
2022/11/27 02:29:54;;;;;;;85.47;41.63;;;;;;;1.16;94.00;100193.05;2280513;78;20938;-82
2022/11/27 02:32:54;;;;;;;90.93;41.90;;;;;;;1.15;94.27;100189.98;2280598;78;20895;-82
2022/11/27 02:35:55;;;;;;;89.83;41.13;;;;;;;1.19;94.33;100193.66;2280397;78;21405;-82
2022/11/27 02:38:55;;;;;;;92.23;41.20;;;;;;;1.21;94.36;100195.95;2280175;78;20962;-82
2022/11/27 02:41:56;;;;;;;90.13;41.20;;;;;;;1.22;94.29;100202.48;2280329;78;20875;-82
2022/11/27 02:44:56;;;;;;;97.27;41.80;;;;;;;1.23;94.28;100198.23;2280595;78;20895;-81
2022/11/27 02:47:57;;;;;;;91.73;42.53;;;;;;;1.21;94.11;100203.27;2280508;78;20946;-81
2022/11/27 02:50:57;;;;;;;97.23;43.17;;;;;;;1.19;94.20;100203.55;2280277;78;21274;-81
2022/11/27 02:53:57;;;;;;;85.93;41.80;;;;;;;1.18;94.20;100203.05;2280894;78;20931;-81
2022/11/27 02:56:58;;;;;;;90.67;40.93;;;;;;;1.18;94.36;100208.20;2279846;78;20970;-81
2022/11/27 02:59:58;;;;;;;90.37;40.70;;;;;;;1.22;94.61;100201.20;2279978;78;20887;-81
2022/11/27 03:02:59;;;;;;;89.53;41.73;;;;;;;1.28;94.10;100202.91;2280693;78;20898;-82
2022/11/27 03:05:59;;;;;;;86.60;38.97;;;;;;;1.28;94.10;100202.91;2280840;78;20902;-82
2022/11/27 03:08:59;;;;;;;82.30;38.50;;;;;;;1.32;94.20;100208.27;2280665;78;21326;-82
2022/11/27 03:12:00;;;;;;;79.07;40.07;;;;;;;1.33;93.90;100209.66;2280581;78;20951;-82
2022/11/27 03:15:00;;;;;;;78.73;37.77;;;;;;;1.32;93.88;100209.55;2280880;78;21276;-82
2022/11/27 03:18:01;;;;;;;74.80;37.13;;;;;;;1.34;94.12;100205.02;2280664;78;20937;-82
2022/11/27 03:21:01;;;;;;;75.90;38.07;;;;;;;1.36;93.92;100210.27;2280660;78;20899;-83
2022/11/27 03:24:01;;;;;;;79.43;36.50;;;;;;;1.37;93.81;100209.09;2280275;78;20863;-83
2022/11/27 03:27:02;;;;;;;74.90;36.03;;;;;;;1.39;93.58;100199.80;2276621;78;20907;-83
2022/11/27 03:30:02;;;;;;;77.57;38.43;;;;;;;1.39;93.52;100210.48;2276540;78;20942;-83
2022/11/27 03:33:03;;;;;;;76.47;37.73;;;;;;;1.41;93.46;100211.48;2276440;78;21298;-83
2022/11/27 03:36:03;;;;;;;71.77;36.93;;;;;;;1.45;93.48;100205.36;2276673;78;20891;-83
2022/11/27 03:39:04;;;;;;;73.33;35.93;;;;;;;1.49;93.44;100211.61;2276405;78;20922;-83
2022/11/27 03:42:04;;;;;;;78.20;36.93;;;;;;;1.52;93.17;100218.26;2276793;78;21300;-82
2022/11/27 03:45:04;;;;;;;70.40;34.90;;;;;;;1.55;93.18;100213.33;2276766;78;20919;-82
2022/11/27 03:48:05;;;;;;;69.83;35.67;;;;;;;1.59;93.53;100212.75;2276781;78;20899;-82
2022/11/27 03:51:05;;;;;;;70.67;34.93;;;;;;;1.65;93.23;100203.27;2276753;78;20863;-82
2022/11/27 03:54:06;;;;;;;68.17;34.20;;;;;;;1.66;93.08;100208.52;2276544;78;21338;-82
2022/11/27 03:57:06;;;;;;;70.23;35.10;;;;;;;1.70;93.02;100205.37;2276722;78;20918;-82
2022/11/27 04:00:07;;;;;;;73.27;35.47;;;;;;;1.69;92.65;100199.72;2276655;78;20942;-83
2022/11/27 04:03:07;;;;;;;75.47;35.90;;;;;;;1.71;92.96;100204.97;2276863;78;20938;-82
2022/11/27 04:06:07;;;;;;;70.63;33.93;;;;;;;1.74;92.86;100207.39;2276498;78;20891;-82
2022/11/27 04:09:08;;;;;;;65.57;34.20;;;;;;;1.77;92.89;100206.31;2276401;78;20962;-82
2022/11/27 04:12:08;;;;;;;65.93;34.27;;;;;;;1.81;92.87;100203.16;2276680;78;20899;-82
2022/11/27 04:15:08;;;;;;;64.33;33.80;;;;;;;1.82;92.72;100199.80;2276242;78;20930;-81
2022/11/27 04:18:09;;;;;;;67.87;33.33;;;;;;;1.83;92.74;100202.87;2276535;78;21283;-81
2022/11/27 04:21:11;;;;;;;67.70;33.53;;;;;;;1.82;92.59;100198.51;2276578;78;20895;-82
2022/11/27 04:24:10;;;;;;;68.03;33.83;;;;;;;1.82;92.61;100195.94;2276545;78;20895;-82
2022/11/27 04:27:10;;;;;;;56.40;30.90;;;;;;;1.87;92.63;100194.95;2280095;78;20942;-81
2022/11/27 04:30:11;;;;;;;62.90;32.23;;;;;;;1.88;92.61;100195.06;2280095;78;21289;-82
2022/11/27 04:33:11;;;;;;;66.33;32.93;;;;;;;1.89;92.35;100204.56;2280312;78;20938;-81
2022/11/27 04:36:12;;;;;;;63.20;32.97;;;;;;;1.91;92.37;100205.95;2280988;78;20918;-82
2022/11/27 04:39:12;;;;;;;67.63;32.53;;;;;;;1.87;91.98;100206.15;2280710;78;20985;-82
2022/11/27 04:42:12;;;;;;;64.13;31.23;;;;;;;1.83;92.11;100205.44;2280640;78;20871;-82
2022/11/27 04:45:13;;;;;;;63.97;32.93;;;;;;;1.83;92.03;100198.11;2280631;78;20930;-82
2022/11/27 04:48:13;;;;;;;65.20;32.63;;;;;;;1.84;92.22;100196.04;2280562;78;20867;-82
2022/11/27 04:51:14;;;;;;;59.00;31.20;;;;;;;1.89;92.26;100195.95;2280485;78;20895;-82
2022/11/27 04:54:14;;;;;;;62.60;31.20;;;;;;;1.93;92.22;100197.05;2280353;78;20887;-82
2022/11/27 04:57:14;;;;;;;59.77;31.50;;;;;;;1.91;91.92;100201.70;2280779;78;20946;-82
2022/11/27 05:00:15;;;;;;;63.80;32.53;;;;;;;1.85;91.49;100199.11;2280998;78;21255;-82
2022/11/27 05:03:15;;;;;;;59.83;33.03;;;;;;;1.80;91.98;100191.08;2280493;78;20925;-82
2022/11/27 05:06:16;;;;;;;63.30;31.80;;;;;;;1.84;92.11;100190.89;2280840;78;20918;-81
2022/11/27 05:09:16;;;;;;;66.37;32.30;;;;;;;1.88;91.99;100188.63;2280645;78;20985;-81
2022/11/27 05:12:16;;;;;;;63.63;31.07;;;;;;;1.86;91.81;100190.59;2279970;78;20927;-81
2022/11/27 05:15:17;;;;;;;67.27;32.17;;;;;;;1.86;91.99;100190.59;2279841;78;21279;-81
2022/11/27 05:18:17;;;;;;;57.20;30.63;;;;;;;1.88;92.04;100194.17;2279680;78;21282;-81
2022/11/27 05:21:18;;;;;;;68.20;32.50;;;;;;;1.93;92.16;100190.61;2280237;78;20918;-80
2022/11/27 05:24:18;;;;;;;67.30;34.00;;;;;;;1.95;92.13;100191.21;2280089;78;20886;-81
2022/11/27 05:27:18;;;;;;;61.93;32.23;;;;;;;1.91;91.98;100183.67;2237063;78;20958;-81
2022/11/27 05:30:19;;;;;;;65.13;32.80;;;;;;;1.90;92.09;100185.75;2235658;79;20918;-80
2022/11/27 05:33:19;;;;;;;64.23;31.57;;;;;;;1.93;92.04;100193.19;2235448;79;20949;-81
2022/11/27 05:36:20;;;;;;;63.00;32.00;;;;;;;1.91;91.71;100198.23;2235294;79;20926;-81
2022/11/27 05:39:21;;;;;;;64.37;33.13;;;;;;;1.90;91.76;100204.17;2235172;79;20965;-80
2022/11/27 05:42:23;;;;;;;61.40;32.77;;;;;;;1.96;91.96;100202.01;2235204;80;20910;-80
2022/11/27 05:45:23;;;;;;;64.60;32.77;;;;;;;2.02;91.82;100202.81;2234953;79;20905;-80
2022/11/27 05:48:24;;;;;;;60.20;30.17;;;;;;;2.05;91.92;100202.63;2234891;79;20958;-81
2022/11/27 05:51:24;;;;;;;56.20;30.27;;;;;;;2.07;91.69;100209.16;2235140;79;20938;-82
2022/11/27 05:54:25;;;;;;;58.30;31.20;;;;;;;3.09;100.00;100199.09;2235205;79;20914;-81
2022/11/27 05:57:25;;;;;;;61.40;31.27;;;;;;;3.48;95.07;100193.84;2235191;79;21318;-80
2022/11/27 06:00:26;;;;;;;63.00;30.13;;;;;;;3.11;91.56;100195.80;2235135;79;20949;-80
2022/11/27 06:03:26;;;;;;;65.70;30.80;;;;;;;2.86;91.03;100200.22;2235201;79;20900;-81
2022/11/27 06:06:26;;;;;;;61.13;31.27;;;;;;;2.71;90.82;100194.97;2234983;80;20942;-82
2022/11/27 06:09:27;;;;;;;56.30;30.03;;;;;;;2.56;90.53;100190.98;2234545;79;21384;-82
2022/11/27 06:12:27;;;;;;;63.40;30.53;;;;;;;2.44;90.77;100190.58;2234611;79;21313;-82
2022/11/27 06:15:28;;;;;;;63.87;31.47;;;;;;;2.34;90.87;100188.20;2234936;79;20976;-82
2022/11/27 06:18:28;;;;;;;54.73;30.37;;;;;;;2.27;90.94;100187.30;2235018;79;20910;-81
2022/11/27 06:21:28;;;;;;;62.77;31.90;;;;;;;2.22;91.40;100184.42;2235026;79;20946;-81
2022/11/27 06:24:29;;;;;;;64.17;33.23;;;;;;;2.21;91.42;100178.77;2234400;80;20905;-81
2022/11/27 06:27:29;;;;;;;61.80;32.50;;;;;;;2.21;91.36;100187.39;2233900;78;20952;-81
2022/11/27 06:30:30;;;;;;;67.53;33.50;;;;;;;2.21;91.36;100187.39;2234431;79;20945;-81
2022/11/27 06:33:30;;;;;;;61.73;33.07;;;;;;;2.17;91.26;100188.38;2234385;79;21226;-80
2022/11/27 06:36:30;;;;;;;63.77;32.63;;;;;;;2.16;91.34;100186.20;2234326;79;20937;-80
2022/11/27 06:39:31;;;;;;;56.60;31.47;;;;;;;2.14;91.30;100181.34;2234324;79;21029;-80
2022/11/27 06:42:31;;;;;;;64.10;32.03;;;;;;;2.11;91.07;100181.14;2234884;79;20886;-81
2022/11/27 06:45:33;;;;;;;63.97;32.50;;;;;;;2.09;91.18;100180.54;2212566;80;21973;-81
2022/11/27 06:48:33;;;;;;;58.90;31.70;;;;;;;2.07;91.17;100186.88;2234945;79;21317;-82
2022/11/27 06:51:33;;;;;;;59.10;31.30;;;;;;;2.07;91.44;100187.27;2235151;79;21278;-82
2022/11/27 06:54:34;;;;;;;60.73;32.37;;;;;;;2.07;91.56;100189.84;2234722;79;20933;-81
2022/11/27 06:57:34;;;;;;;61.23;32.07;;;;;;;2.12;91.69;100195.80;2234915;79;20946;-82
2022/11/27 07:00:35;;;;;;;68.47;33.40;;;;;;;2.17;91.53;100187.09;2235150;79;20929;-81
2022/11/27 07:03:35;;;;;;;66.10;33.17;;;;;;;2.18;91.48;100186.30;2235006;80;20906;-82
2022/11/27 07:06:35;;;;;;;57.07;31.60;;;;;;;2.21;91.33;100181.35;2235027;79;20981;-82
2022/11/27 07:09:36;;;;;;;61.47;32.33;;;;;;;2.20;91.16;100176.59;2235235;80;20979;-82
2022/11/27 07:12:36;;;;;;;61.60;32.83;;;;;;;2.21;91.51;100173.22;2235460;79;20875;-82
2022/11/27 07:15:37;;;;;;;65.33;34.27;;;;;;;2.29;91.56;100172.44;2235321;79;21357;-81
2022/11/27 07:18:37;;;;;;;65.27;35.70;;;;;;;2.35;91.41;100178.39;2235061;79;20914;-81
2022/11/27 07:21:37;;;;;;;75.90;39.90;;;;;;;2.35;91.41;100178.39;2235152;79;20886;-81
2022/11/27 07:24:38;;;;;;;70.80;37.90;;;;;;;2.33;91.25;100179.58;2235117;79;20950;-81
2022/11/27 07:27:38;;;;;;;67.40;36.60;;;;;;;2.30;91.29;100181.95;2268049;78;20942;-83
2022/11/27 07:30:39;;;;;;;73.40;38.37;;;;;;;2.34;91.58;100183.94;2280085;78;20950;-81
2022/11/27 07:33:39;;;;;;;69.07;36.67;;;;;;;2.39;91.62;100185.13;2280051;78;20899;-81
2022/11/27 07:36:39;;;;;;;67.93;36.20;;;;;;;2.46;91.57;100183.84;2280036;78;20932;-81
2022/11/27 07:39:40;;;;;;;68.97;36.37;;;;;;;2.49;91.54;100195.24;2275802;78;20891;-81
2022/11/27 07:42:40;;;;;;;66.90;37.13;;;;;;;2.50;91.05;100202.18;2268683;78;20867;-81
2022/11/27 07:45:41;;;;;;;66.37;36.37;;;;;;;2.52;91.45;100197.13;2280414;78;20938;-82
2022/11/27 07:48:41;;;;;;;67.87;36.57;;;;;;;2.60;91.57;100205.36;2280347;78;20875;-82
2022/11/27 07:51:41;;;;;;;69.20;36.00;;;;;;;2.65;91.20;100204.00;2280364;78;20947;-83
2022/11/27 07:54:42;;;;;;;67.90;35.00;;;;;;;2.70;91.06;100203.90;2280557;78;20903;-82
2022/11/27 07:57:42;;;;;;;66.43;35.67;;;;;;;2.76;91.18;100199.13;2280528;78;20930;-82
2022/11/27 08:00:43;;;;;;;65.40;35.53;;;;;;;2.80;90.89;100192.09;2280279;78;20942;-82
2022/11/27 08:03:43;;;;;;;74.63;39.40;;;;;;;2.85;90.80;100201.02;2280192;78;20899;-83
2022/11/27 08:06:44;;;;;;;71.83;39.20;;;;;;;2.88;90.92;100193.47;2280212;78;20907;-82
2022/11/27 08:09:44;;;;;;;74.87;39.80;;;;;;;2.95;90.52;100198.22;2276554;78;20930;-81
2022/11/27 08:12:44;;;;;;;72.47;38.17;;;;;;;2.98;90.05;100200.99;2274952;78;20934;-81
2022/11/27 08:15:46;;;;;;;76.20;40.93;;;;;;;2.98;90.13;100201.39;2279762;78;21341;-82
2022/11/27 08:18:45;;;;;;;70.03;38.47;;;;;;;3.01;89.92;100206.34;2279285;78;20922;-82
2022/11/27 08:21:46;;;;;;;73.70;38.33;;;;;;;3.00;89.83;100199.40;2279749;78;20942;-82
2022/11/27 08:24:47;;;;;;;64.73;37.27;;;;;;;3.03;90.23;100200.88;2279720;78;20887;-81
2022/11/27 08:27:47;;;;;;;71.03;38.30;;;;;;;3.10;90.43;100197.89;2277999;78;20970;-81
2022/11/27 08:30:47;;;;;;;70.90;37.63;;;;;;;3.13;89.87;100196.80;2276221;78;20903;-81
2022/11/27 08:33:47;;;;;;;69.53;36.57;;;;;;;3.13;89.63;100198.48;2275890;78;20943;-81
2022/11/27 08:36:48;;;;;;;62.50;34.23;;;;;;;3.11;89.49;100199.67;2276057;78;20923;-82
2022/11/27 08:39:48;;;;;;;64.47;34.63;;;;;;;3.10;89.35;100195.31;2276143;78;20883;-82
2022/11/27 08:42:49;;;;;;;70.97;36.00;;;;;;;3.09;89.70;100196.50;2276143;78;20883;-81
2022/11/27 08:45:49;;;;;;;62.83;35.10;;;;;;;3.12;89.75;100200.17;2276229;78;21303;-81
2022/11/27 08:48:49;;;;;;;70.50;38.27;;;;;;;3.16;89.78;100199.97;2276239;78;20879;-81
2022/11/27 08:51:50;;;;;;;65.97;37.43;;;;;;;3.22;89.82;100202.03;2276360;78;20883;-82
2022/11/27 08:54:50;;;;;;;106.03;55.83;;;;;;;3.28;89.62;100195.56;2276360;78;20895;-81
2022/11/27 08:57:51;;;;;;;75.63;39.10;;;;;;;3.31;89.32;100194.86;2276574;78;20927;-81
2022/11/27 09:00:51;;;;;;;71.13;37.60;;;;;;;3.30;89.05;100199.13;2276107;78;20931;-80
2022/11/27 09:03:51;;;;;;;70.10;38.70;;;;;;;3.28;89.13;100199.83;2276196;78;20895;-80
2022/11/27 09:06:52;;;;;;;71.20;40.63;;;;;;;3.27;89.04;100196.76;2276392;78;20879;-81
2022/11/27 09:09:52;;;;;;;78.87;42.07;;;;;;;3.32;89.46;100196.64;2276191;78;20926;-80
2022/11/27 09:12:55;;;;;;;70.43;37.97;;;;;;;3.37;89.21;100197.82;2276021;78;21310;-80
2022/11/27 09:15:53;;;;;;;71.20;40.27;;;;;;;3.39;89.12;100196.22;2275989;78;20950;-81
2022/11/27 09:18:54;;;;;;;70.80;40.97;;;;;;;3.42;89.25;100198.99;2276132;78;20887;-81
2022/11/27 09:21:55;;;;;;;81.03;44.13;;;;;;;3.45;89.13;100204.34;2276290;78;20906;-80
2022/11/27 09:24:54;;;;;;;83.07;46.50;;;;;;;3.49;89.11;100194.73;2276334;78;21263;-80
2022/11/27 09:27:55;;;;;;;76.90;41.83;;;;;;;3.56;89.30;100189.55;2277379;78;20950;-81
2022/11/27 09:30:55;;;;;;;77.00;42.07;;;;;;;3.62;89.31;100195.08;2279711;78;20884;-82
2022/11/27 09:33:55;;;;;;;87.87;45.87;;;;;;;3.69;89.10;100190.38;2279731;78;20872;-82
2022/11/27 09:36:56;;;;;;;87.30;46.40;;;;;;;3.66;88.35;100191.48;2279941;78;20961;-82
2022/11/27 09:39:58;;;;;;;80.90;43.00;;;;;;;3.65;88.68;100192.28;2280045;78;21330;-81
2022/11/27 09:42:57;;;;;;;78.10;39.90;;;;;;;3.69;88.68;100185.21;2279931;78;20895;-80
2022/11/27 09:45:57;;;;;;;66.40;38.93;;;;;;;3.77;88.55;100190.84;2280196;78;20904;-80
2022/11/27 09:48:58;;;;;;;70.73;38.67;;;;;;;3.76;88.21;100186.07;2280349;78;21306;-80
2022/11/27 09:51:58;;;;;;;67.60;37.77;;;;;;;3.71;87.74;100182.32;2280573;78;21270;-81
2022/11/27 09:54:58;;;;;;;64.83;37.53;;;;;;;3.70;88.00;100186.10;2280411;78;21041;-81
2022/11/27 09:57:59;;;;;;;63.07;36.03;;;;;;;3.70;87.73;100186.10;2280588;78;20962;-80
2022/11/27 10:00:59;;;;;;;59.50;34.47;;;;;;;3.67;87.73;100182.94;2280950;78;20892;-80
2022/11/27 10:04:00;;;;;;;61.10;34.13;;;;;;;3.67;87.68;100183.34;2280590;78;20934;-80
2022/11/27 10:07:00;;;;;;;61.33;35.00;;;;;;;3.66;87.56;100183.73;2280245;78;20895;-81
2022/11/27 10:10:00;;;;;;;63.33;35.27;;;;;;;3.71;87.79;100179.73;2280428;78;20911;-81
2022/11/27 10:13:01;;;;;;;65.00;36.37;;;;;;;3.77;87.55;100181.80;2280335;78;20907;-81
2022/11/27 10:16:01;;;;;;;73.27;38.33;;;;;;;3.80;87.40;100180.28;2280386;78;20923;-80
2022/11/27 10:19:02;;;;;;;70.03;37.00;;;;;;;3.81;87.37;100180.78;2280586;78;21083;-81
2022/11/27 10:22:02;;;;;;;68.57;38.27;;;;;;;3.89;87.68;100173.88;2280446;78;20910;-81
2022/11/27 10:25:02;;;;;;;68.27;36.70;;;;;;;3.91;87.20;100171.88;2280748;78;20894;-81
2022/11/27 10:28:03;;;;;;;67.83;37.83;;;;;;;3.96;87.69;100169.17;2280245;78;20938;-81
2022/11/27 10:31:03;;;;;;;69.70;36.43;;;;;;;4.04;87.81;100174.78;2279913;78;20883;-81
2022/11/27 10:34:04;;;;;;;65.77;37.77;;;;;;;4.11;87.64;100163.60;2279914;78;20933;-81
2022/11/27 10:37:04;;;;;;;65.90;38.93;;;;;;;4.14;87.14;100156.03;2280052;78;20922;-82
2022/11/27 10:40:04;;;;;;;78.00;40.47;;;;;;;4.20;87.27;100161.95;2279384;78;20930;-82
2022/11/27 10:43:05;;;;;;;74.93;40.73;;;;;;;4.22;86.51;100156.47;2271593;78;20863;-80
2022/11/27 10:46:05;;;;;;;83.93;42.27;;;;;;;4.27;86.44;100152.86;2286817;78;20871;-81
2022/11/27 10:49:06;;;;;;;75.53;41.40;;;;;;;4.31;86.15;100150.54;2279730;78;20895;-81
2022/11/27 10:52:06;;;;;;;82.07;43.37;;;;;;;4.31;86.15;100150.54;2279632;78;20871;-82
2022/11/27 10:55:07;;;;;;;97.57;50.80;;;;;;;4.36;85.84;100150.44;2279929;78;20890;-80
2022/11/27 10:58:07;;;;;;;73.57;42.57;;;;;;;4.41;85.72;100145.12;2279801;78;20899;-80
2022/11/27 11:01:07;;;;;;;103.80;57.90;;;;;;;4.48;86.15;100141.19;2279767;78;21279;-80
2022/11/27 11:04:08;;;;;;;106.67;59.67;;;;;;;4.54;85.72;100140.23;2279651;78;20883;-81
2022/11/27 11:07:08;;;;;;;107.37;62.47;;;;;;;4.55;85.51;100138.54;2279679;78;20918;-80
2022/11/27 11:10:09;;;;;;;105.60;57.07;;;;;;;4.59;85.44;100130.15;2279620;78;20918;-80
2022/11/27 11:13:09;;;;;;;101.40;59.17;;;;;;;4.67;85.52;100127.59;2279267;78;21358;-81
2022/11/27 11:16:09;;;;;;;94.77;52.83;;;;;;;4.70;85.33;100131.63;2279628;78;21326;-81
2022/11/27 11:19:10;;;;;;;98.67;52.63;;;;;;;4.78;85.68;100129.06;2279555;78;20891;-79
2022/11/27 11:22:10;;;;;;;88.03;50.33;;;;;;;4.86;85.68;100130.78;2279588;78;20894;-80
2022/11/27 11:25:11;;;;;;;99.93;52.00;;;;;;;4.90;85.03;100132.33;2279147;78;20926;-79
2022/11/27 11:28:11;;;;;;;85.47;49.93;;;;;;;5.00;84.83;100128.13;2278333;78;20977;-81
2022/11/27 11:31:11;;;;;;;81.20;46.40;;;;;;;5.06;84.38;100124.58;2276085;78;21258;-80
2022/11/27 11:34:12;;;;;;;82.60;44.83;;;;;;;5.07;84.36;100121.19;2275803;78;20867;-81
2022/11/27 11:37:12;;;;;;;81.43;46.63;;;;;;;5.08;84.56;100120.38;2275538;78;20951;-80
2022/11/27 11:40:13;;;;;;;80.83;45.33;;;;;;;5.11;84.12;100128.31;2275908;78;20922;-79
2022/11/27 11:43:13;;;;;;;83.67;44.83;;;;;;;5.18;84.14;100118.28;2275863;78;20955;-80
2022/11/27 11:46:14;;;;;;;77.57;43.80;;;;;;;5.24;83.35;100114.76;2275682;78;20907;-81
2022/11/27 11:49:14;;;;;;;76.17;44.47;;;;;;;5.26;83.26;100111.84;2275975;78;20931;-79
2022/11/27 11:52:20;;;;;;;79.07;44.07;;;;;;;5.32;83.55;100110.88;2275965;78;20930;-81
2022/11/27 11:55:15;;;;;;;83.70;45.53;;;;;;;5.34;83.28;100110.14;2276058;78;20895;-79
2022/11/27 11:58:15;;;;;;;82.77;45.20;;;;;;;5.35;82.87;100101.97;2275725;78;21322;-80
2022/11/27 12:01:16;;;;;;;75.73;43.90;;;;;;;5.34;82.88;100105.37;2276124;78;20907;-81
2022/11/27 12:04:16;;;;;;;81.23;46.27;;;;;;;5.34;83.01;100101.48;2275963;78;20898;-80
2022/11/27 12:07:16;;;;;;;79.97;44.80;;;;;;;5.41;83.06;100108.36;2275991;78;20931;-81
2022/11/27 12:10:17;;;;;;;72.53;42.50;;;;;;;5.44;83.19;100103.75;2275829;78;20922;-80
2022/11/27 12:13:19;;;;;;;69.13;40.40;;;;;;;5.47;83.03;100103.91;2275305;78;20934;-80
2022/11/27 12:16:18;;;;;;;69.17;40.13;;;;;;;5.47;82.96;100097.84;2275803;78;20931;-80
2022/11/27 12:19:18;;;;;;;67.73;36.17;;;;;;;5.45;82.85;100096.46;2275854;78;20887;-80
2022/11/27 12:22:18;;;;;;;61.33;34.43;;;;;;;5.43;82.25;100095.09;2275841;78;20895;-81
2022/11/27 12:25:19;;;;;;;62.90;36.13;;;;;;;5.40;81.84;100086.27;2276041;78;20907;-81
2022/11/27 12:28:19;;;;;;;60.80;33.30;;;;;;;5.35;82.05;100086.44;2276069;78;21006;-80
2022/11/27 12:31:20;;;;;;;55.37;30.80;;;;;;;5.32;82.16;100088.87;2275886;78;20938;-81
2022/11/27 12:34:21;;;;;;;58.43;33.77;;;;;;;5.31;82.05;100084.50;2276373;78;20926;-80
2022/11/27 12:37:20;;;;;;;59.07;32.43;;;;;;;5.28;82.48;100083.94;2276258;78;20930;-80
2022/11/27 12:40:21;;;;;;;56.57;31.37;;;;;;;5.26;82.61;100084.26;2276161;78;21333;-81
2022/11/27 12:43:21;;;;;;;57.93;31.90;;;;;;;5.26;82.82;100081.67;2276192;78;20954;-81
2022/11/27 12:46:22;;;;;;;57.60;31.70;;;;;;;5.22;82.76;100074.55;2276081;78;20910;-80
2022/11/27 12:49:22;;;;;;;53.17;31.00;;;;;;;5.11;82.75;100080.42;2275545;78;20926;-80
2022/11/27 12:52:22;;;;;;;57.83;32.33;;;;;;;5.00;83.59;100079.38;2275399;78;20906;-79
2022/11/27 12:55:24;;;;;;;54.10;32.87;;;;;;;4.93;83.78;100072.98;2274818;78;20911;-82
2022/11/27 12:58:23;;;;;;;49.97;31.30;;;;;;;4.87;83.81;100071.36;2275213;78;20883;-81
2022/11/27 13:01:24;;;;;;;52.87;31.03;;;;;;;4.83;83.96;100074.59;2275243;78;20933;-80
2022/11/27 13:04:24;;;;;;;50.93;30.80;;;;;;;4.77;84.26;100065.20;2276346;78;20899;-80
2022/11/27 13:07:27;;;;;;;58.67;33.57;;;;;;;4.77;84.60;100073.85;2276075;78;21354;-82
2022/11/27 13:10:28;;;;;;;53.50;31.03;;;;;;;4.74;84.59;100061.16;2275990;78;20926;-81
2022/11/27 13:13:29;;;;;;;51.07;29.87;;;;;;;4.77;84.76;100071.67;2276019;78;21357;-81
2022/11/27 13:16:28;;;;;;;53.77;30.23;;;;;;;4.72;84.33;100062.37;2275895;78;20923;-80
2022/11/27 13:19:30;;;;;;;49.63;30.77;;;;;;;4.65;84.48;100066.72;2275927;78;20899;-80
2022/11/27 13:22:30;;;;;;;51.03;30.70;;;;;;;4.61;84.61;100062.19;2276293;78;20902;-80
2022/11/27 13:25:30;;;;;;;51.77;30.87;;;;;;;4.58;84.95;100066.30;2276159;78;21318;-80
2022/11/27 13:28:30;;;;;;;52.60;30.03;;;;;;;4.57;85.14;100066.70;2276115;78;20958;-81
2022/11/27 13:31:31;;;;;;;54.33;32.63;;;;;;;4.55;84.98;100072.59;2276110;78;20902;-80
2022/11/27 13:34:31;;;;;;;60.70;34.27;;;;;;;4.46;85.05;100075.57;2276126;78;20899;-79
2022/11/27 13:37:31;;;;;;;62.00;35.43;;;;;;;4.43;85.49;100071.13;2276213;78;20962;-80
2022/11/27 13:40:32;;;;;;;66.33;36.97;;;;;;;4.42;85.32;100066.75;2276220;78;20895;-80
2022/11/27 13:43:32;;;;;;;66.80;37.67;;;;;;;4.38;85.31;100068.68;2275713;78;21163;-81
2022/11/27 13:46:35;;;;;;;63.87;36.93;;;;;;;4.33;85.50;100063.63;2275784;78;20958;-80
2022/11/27 13:49:36;;;;;;;65.27;37.60;;;;;;;4.29;85.30;100065.55;2276057;78;20919;-80